sensor_id;sensor_type;location;lat;lon;timestamp;pressure;altitude;pressure_sealevel;temperature;humidity
11413;BME280;5762;43.256;26.960;2023-04-07T00:01:11;99407.98;;;6.24;100.00
11413;BME280;5762;43.256;26.960;2023-04-07T00:03:39;99406.59;;;6.31;100.00
11413;BME280;5762;43.256;26.960;2023-04-07T00:06:08;99400.14;;;6.32;100.00
11413;BME280;5762;43.256;26.960;2023-04-07T00:08:37;99400.84;;;6.51;100.00
11413;BME280;5762;43.256;26.960;2023-04-07T00:11:05;99397.08;;;6.52;100.00
11413;BME280;5762;43.256;26.960;2023-04-07T00:13:34;99403.81;;;6.49;100.00
11413;BME280;5762;43.256;26.960;2023-04-07T00:16:03;99398.44;;;6.49;100.00
11413;BME280;5762;43.256;26.960;2023-04-07T00:18:32;99404.40;;;6.41;100.00
11413;BME280;5762;43.256;26.960;2023-04-07T00:21:01;99391.20;;;6.45;100.00
11413;BME280;5762;43.256;26.960;2023-04-07T00:23:29;99400.07;;;6.45;100.00
11413;BME280;5762;43.256;26.960;2023-04-07T00:25:57;99407.13;;;6.33;100.00
11413;BME280;5762;43.256;26.960;2023-04-07T00:28:26;99410.10;;;6.29;100.00
11413;BME280;5762;43.256;26.960;2023-04-07T00:30:55;99412.25;;;6.30;100.00
11413;BME280;5762;43.256;26.960;2023-04-07T00:33:24;99408.22;;;6.30;100.00
11413;BME280;5762;43.256;26.960;2023-04-07T00:35:53;99417.34;;;6.34;100.00
11413;BME280;5762;43.256;26.960;2023-04-07T00:38:22;99416.20;;;6.45;100.00
11413;BME280;5762;43.256;26.960;2023-04-07T00:41:00;99431.77;;;6.48;100.00
11413;BME280;5762;43.256;26.960;2023-04-07T00:43:20;99412.45;;;6.44;100.00
11413;BME280;5762;43.256;26.960;2023-04-07T00:45:50;99414.33;;;6.43;100.00
11413;BME280;5762;43.256;26.960;2023-04-07T00:48:20;99409.83;;;6.31;100.00
11413;BME280;5762;43.256;26.960;2023-04-07T00:50:49;99410.67;;;6.24;100.00
11413;BME280;5762;43.256;26.960;2023-04-07T00:53:17;99415.82;;;6.20;100.00
11413;BME280;5762;43.256;26.960;2023-04-07T00:55:47;99414.41;;;6.28;100.00
11413;BME280;5762;43.256;26.960;2023-04-07T00:58:15;99414.23;;;6.14;100.00
11413;BME280;5762;43.256;26.960;2023-04-07T01:03:17;99415.02;;;6.20;100.00
11413;BME280;5762;43.256;26.960;2023-04-07T01:05:52;99414.49;;;6.18;100.00
11413;BME280;5762;43.256;26.960;2023-04-07T01:11:50;99411.03;;;6.10;100.00
11413;BME280;5762;43.256;26.960;2023-04-07T01:13:42;99410.98;;;6.22;100.00
11413;BME280;5762;43.256;26.960;2023-04-07T01:16:12;99411.98;;;6.29;100.00
11413;BME280;5762;43.256;26.960;2023-04-07T01:18:41;99411.98;;;6.29;100.00
11413;BME280;5762;43.256;26.960;2023-04-07T01:21:16;99410.72;;;6.19;100.00
11413;BME280;5762;43.256;26.960;2023-04-07T01:24:00;99411.55;;;6.14;100.00
11413;BME280;5762;43.256;26.960;2023-04-07T01:26:25;99414.80;;;6.09;100.00
11413;BME280;5762;43.256;26.960;2023-04-07T01:29:06;99419.30;;;6.23;100.00
11413;BME280;5762;43.256;26.960;2023-04-07T01:31:33;99413.48;;;6.03;100.00
11413;BME280;5762;43.256;26.960;2023-04-07T01:34:02;99411.88;;;6.02;100.00
11413;BME280;5762;43.256;26.960;2023-04-07T01:36:31;99416.17;;;6.01;100.00
11413;BME280;5762;43.256;26.960;2023-04-07T01:39:01;99411.61;;;5.99;100.00
11413;BME280;5762;43.256;26.960;2023-04-07T01:41:30;99411.91;;;5.90;100.00
11413;BME280;5762;43.256;26.960;2023-04-07T01:43:59;99415.13;;;5.92;100.00
11413;BME280;5762;43.256;26.960;2023-04-07T01:46:29;99410.88;;;5.78;100.00
11413;BME280;5762;43.256;26.960;2023-04-07T01:48:57;99408.48;;;5.74;100.00
11413;BME280;5762;43.256;26.960;2023-04-07T01:51:26;99411.69;;;5.89;100.00
11413;BME280;5762;43.256;26.960;2023-04-07T01:53:57;99422.11;;;5.93;100.00
11413;BME280;5762;43.256;26.960;2023-04-07T01:56:26;99413.23;;;5.97;100.00
11413;BME280;5762;43.256;26.960;2023-04-07T01:58:55;99415.61;;;6.09;100.00
11413;BME280;5762;43.256;26.960;2023-04-07T02:01:24;99410.79;;;6.03;100.00
11413;BME280;5762;43.256;26.960;2023-04-07T02:04:01;99411.59;;;6.07;100.00
11413;BME280;5762;43.256;26.960;2023-04-07T02:06:31;99416.11;;;6.16;100.00
11413;BME280;5762;43.256;26.960;2023-04-07T02:08:56;99418.02;;;6.11;100.00
11413;BME280;5762;43.256;26.960;2023-04-07T02:11:24;99414.55;;;6.02;100.00
11413;BME280;5762;43.256;26.960;2023-04-07T02:13:54;99417.25;;;6.00;100.00
11413;BME280;5762;43.256;26.960;2023-04-07T02:16:23;99414.05;;;5.95;100.00
11413;BME280;5762;43.256;26.960;2023-04-07T02:18:53;99414.58;;;5.97;100.00
11413;BME280;5762;43.256;26.960;2023-04-07T02:21:26;99413.74;;;6.04;100.00
11413;BME280;5762;43.256;26.960;2023-04-07T02:23:55;99420.94;;;6.17;100.00
11413;BME280;5762;43.256;26.960;2023-04-07T02:26:24;99416.61;;;6.23;100.00
11413;BME280;5762;43.256;26.960;2023-04-07T02:28:53;99405.91;;;6.13;100.00
11413;BME280;5762;43.256;26.960;2023-04-07T02:31:21;99420.88;;;6.24;100.00
11413;BME280;5762;43.256;26.960;2023-04-07T02:33:50;99411.73;;;6.25;100.00
11413;BME280;5762;43.256;26.960;2023-04-07T02:36:19;99409.77;;;6.41;100.00
11413;BME280;5762;43.256;26.960;2023-04-07T02:38:48;99416.44;;;6.51;100.00
11413;BME280;5762;43.256;26.960;2023-04-07T02:41:16;99419.55;;;6.63;100.00
11413;BME280;5762;43.256;26.960;2023-04-07T02:43:45;99418.48;;;6.62;100.00
11413;BME280;5762;43.256;26.960;2023-04-07T02:46:14;99419.52;;;6.68;100.00
11413;BME280;5762;43.256;26.960;2023-04-07T02:48:43;99426.24;;;6.68;100.00
11413;BME280;5762;43.256;26.960;2023-04-07T02:51:11;99425.16;;;6.69;100.00
11413;BME280;5762;43.256;26.960;2023-04-07T02:53:39;99429.42;;;6.76;100.00
11413;BME280;5762;43.256;26.960;2023-04-07T02:56:08;99432.98;;;6.66;100.00
11413;BME280;5762;43.256;26.960;2023-04-07T02:58:36;99434.03;;;6.70;100.00
11413;BME280;5762;43.256;26.960;2023-04-07T03:01:05;99428.69;;;6.65;100.00
11413;BME280;5762;43.256;26.960;2023-04-07T03:03:34;99432.44;;;6.66;100.00
11413;BME280;5762;43.256;26.960;2023-04-07T03:06:03;99438.08;;;6.67;100.00
11413;BME280;5762;43.256;26.960;2023-04-07T03:08:32;99433.27;;;6.62;100.00
11413;BME280;5762;43.256;26.960;2023-04-07T03:11:01;99435.70;;;6.61;100.00
11413;BME280;5762;43.256;26.960;2023-04-07T03:13:30;99438.38;;;6.63;100.00
11413;BME280;5762;43.256;26.960;2023-04-07T03:15:59;99435.69;;;6.63;100.00
11413;BME280;5762;43.256;26.960;2023-04-07T03:18:28;99435.41;;;6.65;100.00
11413;BME280;5762;43.256;26.960;2023-04-07T03:20:57;99435.95;;;6.64;100.00
11413;BME280;5762;43.256;26.960;2023-04-07T03:23:26;99434.31;;;6.68;100.00
11413;BME280;5762;43.256;26.960;2023-04-07T03:25:55;99437.80;;;6.69;100.00
11413;BME280;5762;43.256;26.960;2023-04-07T03:28:24;99444.55;;;6.66;100.00
11413;BME280;5762;43.256;26.960;2023-04-07T03:30:56;99432.18;;;6.65;100.00
11413;BME280;5762;43.256;26.960;2023-04-07T03:33:25;99441.62;;;6.60;100.00
11413;BME280;5762;43.256;26.960;2023-04-07T03:35:53;99444.89;;;6.57;100.00
11413;BME280;5762;43.256;26.960;2023-04-07T03:38:22;99441.90;;;6.59;100.00
11413;BME280;5762;43.256;26.960;2023-04-07T03:40:50;99449.14;;;6.61;100.00
11413;BME280;5762;43.256;26.960;2023-04-07T03:43:19;99453.95;;;6.66;100.00
11413;BME280;5762;43.256;26.960;2023-04-07T03:45:48;99456.59;;;6.74;100.00
11413;BME280;5762;43.256;26.960;2023-04-07T03:48:17;99460.09;;;6.75;100.00
11413;BME280;5762;43.256;26.960;2023-04-07T03:50:46;99461.46;;;6.69;100.00
11413;BME280;5762;43.256;26.960;2023-04-07T03:53:14;99467.75;;;6.57;100.00
11413;BME280;5762;43.256;26.960;2023-04-07T03:55:44;99463.59;;;6.72;100.00
11413;BME280;5762;43.256;26.960;2023-04-07T03:58:13;99468.69;;;6.77;100.00
11413;BME280;5762;43.256;26.960;2023-04-07T04:00:41;99469.19;;;6.81;100.00
11413;BME280;5762;43.256;26.960;2023-04-07T04:03:10;99479.38;;;6.87;100.00
11413;BME280;5762;43.256;26.960;2023-04-07T04:05:39;99473.38;;;6.95;100.00
11413;BME280;5762;43.256;26.960;2023-04-07T04:08:08;99475.87;;;6.89;100.00
11413;BME280;5762;43.256;26.960;2023-04-07T04:10:36;99480.61;;;6.99;100.00
11413;BME280;5762;43.256;26.960;2023-04-07T04:13:05;99474.95;;;7.01;100.00
11413;BME280;5762;43.256;26.960;2023-04-07T04:15:34;99485.19;;;6.99;100.00
11413;BME280;5762;43.256;26.960;2023-04-07T04:18:02;99484.13;;;6.97;100.00
11413;BME280;5762;43.256;26.960;2023-04-07T04:20:31;99485.27;;;6.91;100.00
11413;BME280;5762;43.256;26.960;2023-04-07T04:22:59;99484.68;;;6.94;100.00
11413;BME280;5762;43.256;26.960;2023-04-07T04:25:28;99494.14;;;6.92;100.00
11413;BME280;5762;43.256;26.960;2023-04-07T04:27:57;99494.41;;;6.93;100.00
11413;BME280;5762;43.256;26.960;2023-04-07T04:30:25;99490.98;;;6.80;100.00
11413;BME280;5762;43.256;26.960;2023-04-07T04:32:54;99490.40;;;6.88;100.00
11413;BME280;5762;43.256;26.960;2023-04-07T04:35:23;99491.95;;;6.94;100.00
11413;BME280;5762;43.256;26.960;2023-04-07T04:37:52;99494.60;;;6.99;100.00
11413;BME280;5762;43.256;26.960;2023-04-07T04:40:21;99499.56;;;6.84;100.00
11413;BME280;5762;43.256;26.960;2023-04-07T04:42:50;99506.89;;;6.73;100.00
11413;BME280;5762;43.256;26.960;2023-04-07T04:45:18;99509.05;;;6.71;100.00
11413;BME280;5762;43.256;26.960;2023-04-07T04:47:47;99509.58;;;6.73;100.00
11413;BME280;5762;43.256;26.960;2023-04-07T04:50:21;99512.25;;;6.76;100.00
11413;BME280;5762;43.256;26.960;2023-04-07T04:52:46;99510.85;;;6.37;100.00
11413;BME280;5762;43.256;26.960;2023-04-07T04:55:15;99511.40;;;6.34;100.00
11413;BME280;5762;43.256;26.960;2023-04-07T04:57:44;99512.20;;;6.37;100.00
11413;BME280;5762;43.256;26.960;2023-04-07T05:00:13;99523.17;;;6.48;100.00
11413;BME280;5762;43.256;26.960;2023-04-07T05:02:41;99522.89;;;6.52;100.00
11413;BME280;5762;43.256;26.960;2023-04-07T05:05:10;99523.97;;;6.49;100.00
11413;BME280;5762;43.256;26.960;2023-04-07T05:07:39;99523.97;;;6.51;100.00
11413;BME280;5762;43.256;26.960;2023-04-07T05:10:08;99522.63;;;6.51;100.00
11413;BME280;5762;43.256;26.960;2023-04-07T05:12:36;99522.77;;;6.72;100.00
11413;BME280;5762;43.256;26.960;2023-04-07T05:15:05;99516.84;;;6.73;100.00
11413;BME280;5762;43.256;26.960;2023-04-07T05:17:34;99523.00;;;6.79;100.00
11413;BME280;5762;43.256;26.960;2023-04-07T05:20:03;99525.21;;;6.66;100.00
11413;BME280;5762;43.256;26.960;2023-04-07T05:22:31;99524.16;;;6.62;100.00
11413;BME280;5762;43.256;26.960;2023-04-07T05:24:59;99523.34;;;6.64;100.00
11413;BME280;5762;43.256;26.960;2023-04-07T05:27:28;99522.72;;;6.80;100.00
11413;BME280;5762;43.256;26.960;2023-04-07T05:29:57;99524.56;;;6.87;100.00
11413;BME280;5762;43.256;26.960;2023-04-07T05:32:29;99531.26;;;6.92;100.00
11413;BME280;5762;43.256;26.960;2023-04-07T05:34:57;99537.67;;;6.94;100.00
11413;BME280;5762;43.256;26.960;2023-04-07T05:37:26;99542.73;;;7.03;100.00
11413;BME280;5762;43.256;26.960;2023-04-07T05:39:55;99550.02;;;7.00;100.00
11413;BME280;5762;43.256;26.960;2023-04-07T05:42:23;99549.39;;;7.16;100.00
11413;BME280;5762;43.256;26.960;2023-04-07T05:44:52;99548.07;;;7.11;100.00
11413;BME280;5762;43.256;26.960;2023-04-07T05:47:21;99548.63;;;7.08;100.00
11413;BME280;5762;43.256;26.960;2023-04-07T05:49:50;99552.03;;;7.23;100.00
11413;BME280;5762;43.256;26.960;2023-04-07T05:52:18;99548.86;;;7.48;100.00
11413;BME280;5762;43.256;26.960;2023-04-07T05:54:47;99551.48;;;7.58;100.00
11413;BME280;5762;43.256;26.960;2023-04-07T05:57:16;99552.12;;;7.45;100.00
11413;BME280;5762;43.256;26.960;2023-04-07T05:59:44;99551.34;;;7.39;100.00
11413;BME280;5762;43.256;26.960;2023-04-07T06:02:13;99558.92;;;7.66;100.00
11413;BME280;5762;43.256;26.960;2023-04-07T06:04:41;99564.67;;;7.86;100.00
11413;BME280;5762;43.256;26.960;2023-04-07T06:07:10;99563.56;;;7.89;100.00
11413;BME280;5762;43.256;26.960;2023-04-07T06:09:42;99569.48;;;7.91;100.00
11413;BME280;5762;43.256;26.960;2023-04-07T06:12:11;99573.89;;;8.06;100.00
11413;BME280;5762;43.256;26.960;2023-04-07T06:14:39;99570.81;;;8.18;100.00
11413;BME280;5762;43.256;26.960;2023-04-07T06:17:08;99580.86;;;8.10;100.00
11413;BME280;5762;43.256;26.960;2023-04-07T06:19:37;99577.60;;;8.13;100.00
11413;BME280;5762;43.256;26.960;2023-04-07T06:22:05;99581.85;;;8.19;100.00
11413;BME280;5762;43.256;26.960;2023-04-07T06:24:34;99578.88;;;8.20;100.00
11413;BME280;5762;43.256;26.960;2023-04-07T06:27:02;99571.48;;;8.31;100.00
11413;BME280;5762;43.256;26.960;2023-04-07T06:29:34;99579.26;;;8.35;100.00
11413;BME280;5762;43.256;26.960;2023-04-07T06:32:02;99581.95;;;8.35;100.00
11413;BME280;5762;43.256;26.960;2023-04-07T06:34:31;99585.14;;;8.39;100.00
11413;BME280;5762;43.256;26.960;2023-04-07T06:37:00;99583.45;;;8.46;100.00
11413;BME280;5762;43.256;26.960;2023-04-07T06:39:29;99588.33;;;8.44;100.00
11413;BME280;5762;43.256;26.960;2023-04-07T06:41:57;99594.16;;;8.54;100.00
11413;BME280;5762;43.256;26.960;2023-04-07T06:44:26;99593.60;;;8.76;100.00
11413;BME280;5762;43.256;26.960;2023-04-07T06:46:55;99595.98;;;8.80;100.00
11413;BME280;5762;43.256;26.960;2023-04-07T06:49:24;99598.01;;;8.90;100.00
11413;BME280;5762;43.256;26.960;2023-04-07T06:51:53;99607.27;;;9.03;100.00
11413;BME280;5762;43.256;26.960;2023-04-07T06:54:22;99600.13;;;9.12;100.00
11413;BME280;5762;43.256;26.960;2023-04-07T06:56:57;99600.56;;;9.19;100.00
11413;BME280;5762;43.256;26.960;2023-04-07T06:59:26;99608.75;;;9.33;100.00
11413;BME280;5762;43.256;26.960;2023-04-07T07:01:55;99604.88;;;9.36;100.00
11413;BME280;5762;43.256;26.960;2023-04-07T07:04:24;99609.19;;;9.37;100.00
11413;BME280;5762;43.256;26.960;2023-04-07T07:06:52;99615.09;;;9.23;100.00
11413;BME280;5762;43.256;26.960;2023-04-07T07:09:21;99611.63;;;9.20;100.00
11413;BME280;5762;43.256;26.960;2023-04-07T07:11:50;99621.23;;;9.29;100.00
11413;BME280;5762;43.256;26.960;2023-04-07T07:14:19;99618.90;;;9.38;100.00
11413;BME280;5762;43.256;26.960;2023-04-07T07:16:48;99621.81;;;9.61;100.00
11413;BME280;5762;43.256;26.960;2023-04-07T07:19:16;99627.13;;;9.82;100.00
11413;BME280;5762;43.256;26.960;2023-04-07T07:21:45;99627.93;;;9.83;100.00
11413;BME280;5762;43.256;26.960;2023-04-07T07:24:14;99623.88;;;9.83;100.00
11413;BME280;5762;43.256;26.960;2023-04-07T07:26:43;99627.95;;;10.13;100.00
11413;BME280;5762;43.256;26.960;2023-04-07T07:29:12;99637.92;;;10.15;100.00
11413;BME280;5762;43.256;26.960;2023-04-07T07:31:41;99641.23;;;10.28;100.00
11413;BME280;5762;43.256;26.960;2023-04-07T07:34:09;99646.52;;;10.35;100.00
11413;BME280;5762;43.256;26.960;2023-04-07T07:36:38;99641.23;;;10.28;100.00
11413;BME280;5762;43.256;26.960;2023-04-07T07:39:07;99642.66;;;10.53;100.00
11413;BME280;5762;43.256;26.960;2023-04-07T07:41:37;99636.38;;;10.82;100.00
11413;BME280;5762;43.256;26.960;2023-04-07T07:44:05;99635.98;;;10.89;96.79
11413;BME280;5762;43.256;26.960;2023-04-07T07:46:34;99638.13;;;10.04;87.51
11413;BME280;5762;43.256;26.960;2023-04-07T07:49:03;99641.13;;;10.17;94.48
11413;BME280;5762;43.256;26.960;2023-04-07T07:51:32;99643.01;;;10.35;100.00
11413;BME280;5762;43.256;26.960;2023-04-07T07:54:00;99639.63;;;10.40;100.00
11413;BME280;5762;43.256;26.960;2023-04-07T07:56:28;99645.45;;;10.48;95.73
11413;BME280;5762;43.256;26.960;2023-04-07T07:58:57;99643.77;;;10.38;85.02
11413;BME280;5762;43.256;26.960;2023-04-07T08:01:25;99641.84;;;10.25;97.16
11413;BME280;5762;43.256;26.960;2023-04-07T08:03:53;99639.91;;;10.09;88.88
11413;BME280;5762;43.256;26.960;2023-04-07T08:06:22;99642.64;;;9.93;93.36
11413;BME280;5762;43.256;26.960;2023-04-07T08:08:51;99646.16;;;10.53;100.00
11413;BME280;5762;43.256;26.960;2023-04-07T08:11:20;99639.26;;;10.61;100.00
11413;BME280;5762;43.256;26.960;2023-04-07T08:13:49;99642.44;;;10.77;100.00
11413;BME280;5762;43.256;26.960;2023-04-07T08:16:19;99641.84;;;10.93;97.83
11413;BME280;5762;43.256;26.960;2023-04-07T08:18:49;99638.77;;;11.22;98.15
11413;BME280;5762;43.256;26.960;2023-04-07T08:21:17;99643.67;;;11.45;91.52
11413;BME280;5762;43.256;26.960;2023-04-07T08:23:46;99648.92;;;11.53;90.09
11413;BME280;5762;43.256;26.960;2023-04-07T08:26:14;99644.72;;;11.47;84.69
11413;BME280;5762;43.256;26.960;2023-04-07T08:28:43;99649.75;;;11.28;78.15
11413;BME280;5762;43.256;26.960;2023-04-07T08:31:11;99648.72;;;11.49;88.66
11413;BME280;5762;43.256;26.960;2023-04-07T08:33:39;99646.52;;;11.51;82.51
11413;BME280;5762;43.256;26.960;2023-04-07T08:36:08;99653.95;;;11.46;84.72
11413;BME280;5762;43.256;26.960;2023-04-07T08:38:37;99652.49;;;11.39;80.65
11413;BME280;5762;43.256;26.960;2023-04-07T08:41:10;99651.44;;;11.49;81.83
11413;BME280;5762;43.256;26.960;2023-04-07T08:43:38;99651.33;;;11.43;84.30
11413;BME280;5762;43.256;26.960;2023-04-07T08:46:07;99650.97;;;11.22;86.23
11413;BME280;5762;43.256;26.960;2023-04-07T08:48:36;99653.59;;;11.38;85.65
11413;BME280;5762;43.256;26.960;2023-04-07T08:51:05;99653.73;;;11.56;86.59
11413;BME280;5762;43.256;26.960;2023-04-07T08:53:40;99652.80;;;11.38;81.20
11413;BME280;5762;43.256;26.960;2023-04-07T08:56:04;99656.44;;;11.56;82.47
11413;BME280;5762;43.256;26.960;2023-04-07T08:58:34;99651.72;;;11.25;80.45
11413;BME280;5762;43.256;26.960;2023-04-07T09:01:06;99655.63;;;11.08;83.34
11413;BME280;5762;43.256;26.960;2023-04-07T09:03:35;99662.16;;;11.18;80.71
11413;BME280;5762;43.256;26.960;2023-04-07T09:06:05;99659.23;;;11.28;79.78
11413;BME280;5762;43.256;26.960;2023-04-07T09:08:34;99654.31;;;11.30;82.32
11413;BME280;5762;43.256;26.960;2023-04-07T09:11:03;99659.14;;;11.08;80.30
11413;BME280;5762;43.256;26.960;2023-04-07T09:13:32;99658.08;;;11.32;94.07
11413;BME280;5762;43.256;26.960;2023-04-07T09:16:01;99663.88;;;11.39;82.04
11413;BME280;5762;43.256;26.960;2023-04-07T09:18:30;99660.31;;;11.52;81.47
11413;BME280;5762;43.256;26.960;2023-04-07T09:20:59;99661.00;;;11.22;80.97
11413;BME280;5762;43.256;26.960;2023-04-07T09:23:32;99661.11;;;11.17;85.00
11413;BME280;5762;43.256;26.960;2023-04-07T09:26:01;99661.84;;;11.33;81.80
11413;BME280;5762;43.256;26.960;2023-04-07T09:28:40;99662.53;;;11.39;81.18
11413;BME280;5762;43.256;26.960;2023-04-07T09:31:08;99664.70;;;11.62;78.35
11413;BME280;5762;43.256;26.960;2023-04-07T09:33:37;99661.97;;;11.51;79.02
11413;BME280;5762;43.256;26.960;2023-04-07T09:36:05;99660.88;;;11.40;83.31
11413;BME280;5762;43.256;26.960;2023-04-07T09:38:38;99658.25;;;11.71;86.33
11413;BME280;5762;43.256;26.960;2023-04-07T09:41:08;99664.03;;;11.67;79.32
11413;BME280;5762;43.256;26.960;2023-04-07T09:43:38;99663.06;;;11.74;82.27
11413;BME280;5762;43.256;26.960;2023-04-07T09:48:39;99662.46;;;11.17;79.60
11413;BME280;5762;43.256;26.960;2023-04-07T09:51:10;99660.36;;;11.14;81.25
11413;BME280;5762;43.256;26.960;2023-04-07T09:56:12;99656.67;;;11.93;78.56
11413;BME280;5762;43.256;26.960;2023-04-07T09:58:42;99657.47;;;12.04;76.60
11413;BME280;5762;43.256;26.960;2023-04-07T10:01:12;99659.09;;;12.25;73.92
11413;BME280;5762;43.256;26.960;2023-04-07T10:03:41;99667.23;;;12.14;69.53
11413;BME280;5762;43.256;26.960;2023-04-07T10:06:10;99665.05;;;11.94;70.94
11413;BME280;5762;43.256;26.960;2023-04-07T10:08:40;99665.17;;;12.00;72.43
11413;BME280;5762;43.256;26.960;2023-04-07T10:11:09;99664.16;;;12.18;74.50
11413;BME280;5762;43.256;26.960;2023-04-07T10:13:38;99667.36;;;12.51;72.09
11413;BME280;5762;43.256;26.960;2023-04-07T10:16:07;99670.67;;;12.59;68.95
11413;BME280;5762;43.256;26.960;2023-04-07T10:18:35;99660.02;;;12.71;74.05
11413;BME280;5762;43.256;26.960;2023-04-07T10:21:04;99659.86;;;13.16;72.73
11413;BME280;5762;43.256;26.960;2023-04-07T10:23:36;99660.27;;;13.01;69.61
11413;BME280;5762;43.256;26.960;2023-04-07T10:26:03;99657.19;;;13.14;67.38
11413;BME280;5762;43.256;26.960;2023-04-07T10:31:08;99652.94;;;13.10;69.17
11413;BME280;5762;43.256;26.960;2023-04-07T10:33:51;99655.95;;;13.28;69.44
11413;BME280;5762;43.256;26.960;2023-04-07T10:36:16;99651.03;;;13.11;67.05
11413;BME280;5762;43.256;26.960;2023-04-07T10:41:35;99649.42;;;13.47;70.32
11413;BME280;5762;43.256;26.960;2023-04-07T10:49:15;99653.31;;;13.52;67.84
11413;BME280;5762;43.256;26.960;2023-04-07T10:51:44;99651.00;;;13.65;61.02
11413;BME280;5762;43.256;26.960;2023-04-07T10:54:16;99653.80;;;13.62;64.75
11413;BME280;5762;43.256;26.960;2023-04-07T10:57:03;99652.69;;;13.72;61.69
11413;BME280;5762;43.256;26.960;2023-04-07T10:59:33;99649.97;;;13.72;62.54
11413;BME280;5762;43.256;26.960;2023-04-07T11:04:43;99644.05;;;13.35;64.65
11413;BME280;5762;43.256;26.960;2023-04-07T11:07:13;99647.48;;;13.38;70.81
11413;BME280;5762;43.256;26.960;2023-04-07T11:09:44;99647.48;;;13.38;64.70
11413;BME280;5762;43.256;26.960;2023-04-07T11:12:23;99657.16;;;13.05;67.00
11413;BME280;5762;43.256;26.960;2023-04-07T11:14:51;99651.80;;;13.02;66.41
11413;BME280;5762;43.256;26.960;2023-04-07T11:17:20;99641.01;;;13.37;66.82
11413;BME280;5762;43.256;26.960;2023-04-07T11:19:52;99642.47;;;13.06;66.04
11413;BME280;5762;43.256;26.960;2023-04-07T11:22:20;99649.72;;;12.71;66.68
11413;BME280;5762;43.256;26.960;2023-04-07T11:24:49;99636.28;;;13.31;66.76
11413;BME280;5762;43.256;26.960;2023-04-07T11:27:18;99647.00;;;13.62;64.21
11413;BME280;5762;43.256;26.960;2023-04-07T11:29:47;99640.25;;;13.94;61.86
11413;BME280;5762;43.256;26.960;2023-04-07T11:32:20;99637.77;;;13.95;61.79
11413;BME280;5762;43.256;26.960;2023-04-07T11:34:48;99648.17;;;13.93;60.02
11413;BME280;5762;43.256;26.960;2023-04-07T11:39:57;99638.88;;;14.03;59.55
11413;BME280;5762;43.256;26.960;2023-04-07T11:42:55;99637.34;;;14.49;60.18
11413;BME280;5762;43.256;26.960;2023-04-07T11:44:57;99634.80;;;14.26;59.26
11413;BME280;5762;43.256;26.960;2023-04-07T11:47:38;99634.48;;;14.28;59.43
11413;BME280;5762;43.256;26.960;2023-04-07T11:50:06;99633.84;;;14.22;60.44
11413;BME280;5762;43.256;26.960;2023-04-07T11:52:45;99633.98;;;14.43;59.55
11413;BME280;5762;43.256;26.960;2023-04-07T11:55:21;99634.31;;;14.56;59.70
11413;BME280;5762;43.256;26.960;2023-04-07T11:57:49;99633.82;;;15.28;61.24
11413;BME280;5762;43.256;26.960;2023-04-07T12:00:18;99633.67;;;15.39;56.02
11413;BME280;5762;43.256;26.960;2023-04-07T12:02:47;99633.50;;;15.71;54.21
11413;BME280;5762;43.256;26.960;2023-04-07T12:05:16;99643.87;;;15.36;51.46
11413;BME280;5762;43.256;26.960;2023-04-07T12:07:53;99637.00;;;15.24;51.15
11413;BME280;5762;43.256;26.960;2023-04-07T12:10:22;99636.94;;;14.35;51.45
11413;BME280;5762;43.256;26.960;2023-04-07T12:12:51;99628.30;;;14.42;56.72
11413;BME280;5762;43.256;26.960;2023-04-07T12:15:20;99626.16;;;15.15;55.45
11413;BME280;5762;43.256;26.960;2023-04-07T12:17:48;99622.29;;;15.37;57.82
11413;BME280;5762;43.256;26.960;2023-04-07T12:20:17;99625.48;;;15.39;55.34
11413;BME280;5762;43.256;26.960;2023-04-07T12:22:46;99628.62;;;15.70;54.49
11413;BME280;5762;43.256;26.960;2023-04-07T12:25:15;99627.28;;;15.77;51.67
11413;BME280;5762;43.256;26.960;2023-04-07T12:27:44;99632.24;;;15.48;52.72
11413;BME280;5762;43.256;26.960;2023-04-07T12:30:12;99623.85;;;15.32;53.66
11413;BME280;5762;43.256;26.960;2023-04-07T12:32:40;99617.68;;;15.91;56.89
11413;BME280;5762;43.256;26.960;2023-04-07T12:35:09;99623.05;;;16.06;53.00
11413;BME280;5762;43.256;26.960;2023-04-07T12:37:38;99623.92;;;15.59;53.62
11413;BME280;5762;43.256;26.960;2023-04-07T12:40:07;99625.39;;;15.41;54.40
11413;BME280;5762;43.256;26.960;2023-04-07T12:42:37;99628.67;;;14.85;56.49
11413;BME280;5762;43.256;26.960;2023-04-07T12:45:05;99624.65;;;15.12;57.89
11413;BME280;5762;43.256;26.960;2023-04-07T12:47:33;99623.97;;;14.79;58.05
11413;BME280;5762;43.256;26.960;2023-04-07T12:50:02;99618.52;;;14.18;63.26
11413;BME280;5762;43.256;26.960;2023-04-07T12:52:31;99616.28;;;14.58;64.49
11413;BME280;5762;43.256;26.960;2023-04-07T12:55:00;99621.38;;;14.53;63.74
11413;BME280;5762;43.256;26.960;2023-04-07T12:57:28;99617.28;;;14.21;64.57
11413;BME280;5762;43.256;26.960;2023-04-07T12:59:58;99620.63;;;14.27;64.01
11413;BME280;5762;43.256;26.960;2023-04-07T13:02:26;99612.53;;;14.33;66.95
11413;BME280;5762;43.256;26.960;2023-04-07T13:04:55;99619.34;;;14.09;66.01
11413;BME280;5762;43.256;26.960;2023-04-07T13:07:24;99610.84;;;13.79;67.50
11413;BME280;5762;43.256;26.960;2023-04-07T13:09:53;99616.41;;;13.91;71.04
11413;BME280;5762;43.256;26.960;2023-04-07T13:12:22;99607.52;;;13.97;72.61
11413;BME280;5762;43.256;26.960;2023-04-07T13:14:51;99612.28;;;13.85;70.71
11413;BME280;5762;43.256;26.960;2023-04-07T13:17:21;99612.48;;;13.86;74.61
11413;BME280;5762;43.256;26.960;2023-04-07T13:19:49;99609.81;;;13.52;78.61
11413;BME280;5762;43.256;26.960;2023-04-07T13:22:18;99615.59;;;13.41;81.11
11413;BME280;5762;43.256;26.960;2023-04-07T13:24:47;99614.23;;;13.16;81.84
11413;BME280;5762;43.256;26.960;2023-04-07T13:27:16;99614.18;;;13.07;82.79
11413;BME280;5762;43.256;26.960;2023-04-07T13:29:45;99622.38;;;12.96;84.20
11413;BME280;5762;43.256;26.960;2023-04-07T13:32:13;99614.08;;;13.01;84.94
11413;BME280;5762;43.256;26.960;2023-04-07T13:34:42;99619.55;;;13.18;87.29
11413;BME280;5762;43.256;26.960;2023-04-07T13:37:11;99619.66;;;12.96;93.83